Time;durP1;ratioP1;P1;durP2;ratioP2;P2;SDS_P1;SDS_P2;PMS_P1;PMS_P2;Temp;Humidity;BMP_temperature;BMP_pressure;BME280_temperature;BME280_humidity;BME280_pressure;Samples;Min_cycle;Max_cycle;Signal;HPM_P1;HPM_P2
2022/11/24 00:01:19;;;;;;;12.27;8.63;;;10.30;96.70;;;;;;5063273;28;20040;-69
2022/11/24 00:03:53;;;;;;;14.93;10.80;;;10.30;96.70;;;;;;5064545;28;20464;-70
2022/11/24 00:06:22;;;;;;;14.93;10.02;;;10.30;96.70;;;;;;5064113;28;20098;-69
2022/11/24 00:08:52;;;;;;;13.88;9.32;;;10.30;96.70;;;;;;5064637;28;20606;-70
2022/11/24 00:11:23;;;;;;;14.77;9.98;;;10.40;96.70;;;;;;5063821;28;20090;-70
2022/11/24 00:13:51;;;;;;;12.98;9.38;;;10.40;96.70;;;;;;5062579;28;20064;-70
2022/11/24 00:16:21;;;;;;;10.65;9.10;;;10.40;96.70;;;;;;5063687;28;20040;-69
2022/11/24 00:18:51;;;;;;;10.10;8.32;;;10.40;96.70;;;;;;5064327;28;20439;-69
2022/11/24 00:21:20;;;;;;;9.70;7.93;;;10.30;96.70;;;;;;5063342;28;20051;-70
2022/11/24 00:23:51;;;;;;;11.20;8.60;;;10.30;96.70;;;;;;5063625;28;20041;-70
2022/11/24 00:26:21;;;;;;;11.77;8.10;;;10.20;96.70;;;;;;5064282;28;20071;-69
2022/11/24 00:28:52;;;;;;;11.55;8.38;;;10.20;96.70;;;;;;5062196;28;20072;-70
2022/11/24 00:31:22;;;;;;;13.40;8.23;;;10.20;96.70;;;;;;5062461;28;20387;-69
2022/11/24 00:33:53;;;;;;;11.10;7.90;;;10.10;96.70;;;;;;5062373;28;20075;-70
2022/11/24 00:36:23;;;;;;;10.57;7.75;;;10.10;96.70;;;;;;5059491;28;20417;-69
2022/11/24 00:38:55;;;;;;;9.82;7.07;;;10.10;96.70;;;;;;5061381;28;20135;-69
2022/11/24 00:41:24;;;;;;;9.60;7.20;;;10.20;96.70;;;;;;5060916;28;20048;-69
2022/11/24 00:43:53;;;;;;;10.40;7.72;;;10.20;96.70;;;;;;5054206;28;20046;-69
2022/11/24 00:46:22;;;;;;;9.77;7.90;;;10.20;96.70;;;;;;5063626;28;20044;-70
2022/11/24 00:48:51;;;;;;;14.85;7.60;;;10.20;96.70;;;;;;5062890;28;20041;-69
2022/11/24 00:51:21;;;;;;;10.30;8.40;;;10.20;96.70;;;;;;5059825;28;20068;-69
2022/11/24 00:53:50;;;;;;;9.85;7.70;;;10.20;96.70;;;;;;5062766;28;20049;-69
2022/11/24 00:56:19;;;;;;;10.13;8.30;;;10.20;96.70;;;;;;5061641;28;20036;-70
2022/11/24 00:58:47;;;;;;;10.75;7.45;;;10.30;96.70;;;;;;5062245;28;20044;-69
2022/11/24 01:01:18;;;;;;;10.60;7.22;;;10.20;96.70;;;;;;5061915;28;20729;-70
2022/11/24 01:03:46;;;;;;;9.90;7.68;;;10.20;96.70;;;;;;5061087;28;20102;-70
2022/11/24 01:06:16;;;;;;;10.13;7.22;;;10.20;96.70;;;;;;5061833;28;20490;-70
2022/11/24 01:08:45;;;;;;;10.98;7.95;;;10.20;96.70;;;;;;5060255;28;20523;-69
2022/11/24 01:11:16;;;;;;;10.57;7.15;;;10.30;96.70;;;;;;5063282;28;20052;-69
2022/11/24 01:13:47;;;;;;;12.20;7.70;;;10.30;96.70;;;;;;5061995;28;20612;-70
2022/11/24 01:16:17;;;;;;;11.93;7.97;;;10.30;96.70;;;;;;5063085;28;20137;-69
2022/11/24 01:18:48;;;;;;;7.80;6.80;;;10.40;96.70;;;;;;5062419;28;20064;-70
2022/11/24 01:21:20;;;;;;;11.30;7.72;;;10.40;96.70;;;;;;5063366;28;20048;-70
2022/11/24 01:23:50;;;;;;;8.70;7.15;;;10.40;96.70;;;;;;5060679;28;20165;-69
2022/11/24 01:26:19;;;;;;;13.07;8.27;;;10.30;96.70;;;;;;5056518;28;20068;-69
2022/11/24 01:28:52;;;;;;;10.75;8.00;;;10.30;96.70;;;;;;5062015;28;20118;-69
2022/11/24 01:31:21;;;;;;;10.93;7.45;;;10.30;96.70;;;;;;5062531;28;20140;-70
2022/11/24 01:33:50;;;;;;;12.32;7.80;;;10.30;96.70;;;;;;5062863;28;20123;-69
2022/11/24 01:36:18;;;;;;;9.57;6.93;;;10.30;96.70;;;;;;5060950;28;20044;-69
2022/11/24 01:38:47;;;;;;;12.23;8.13;;;10.30;96.70;;;;;;5062663;28;20043;-70
2022/11/24 01:41:18;;;;;;;10.73;7.85;;;10.30;96.70;;;;;;5062406;28;20075;-69
2022/11/24 01:43:47;;;;;;;10.88;8.23;;;10.30;96.70;;;;;;5062197;28;20238;-69
2022/11/24 01:46:21;;;;;;;10.80;7.57;;;10.30;96.70;;;;;;5061436;28;20032;-70
2022/11/24 01:48:56;;;;;;;12.88;8.18;;;10.30;96.70;;;;;;5057222;28;20052;-70
2022/11/24 01:51:28;;;;;;;11.95;8.18;;;10.30;96.70;;;;;;5061487;28;20582;-70
2022/11/24 01:54:01;;;;;;;13.45;8.18;;;10.30;96.70;;;;;;5061403;28;20074;-69
2022/11/24 01:56:30;;;;;;;13.63;8.57;;;10.30;96.70;;;;;;5059809;28;20076;-69
2022/11/24 01:59:01;;;;;;;10.52;8.32;;;10.40;96.70;;;;;;5061753;28;20123;-69
2022/11/24 02:01:32;;;;;;;9.65;7.55;;;10.40;96.70;;;;;;5061572;28;20418;-69
2022/11/24 02:04:03;;;;;;;9.10;7.68;;;10.40;96.70;;;;;;5062274;28;20106;-69
2022/11/24 02:06:34;;;;;;;9.25;7.90;;;10.40;96.70;;;;;;5055401;28;20148;-69
2022/11/24 02:09:10;;;;;;;10.20;7.93;;;10.40;96.70;;;;;;5056501;28;20072;-69
2022/11/24 02:11:40;;;;;;;9.75;7.88;;;10.40;96.70;;;;;;5060508;28;20036;-70
2022/11/24 02:14:11;;;;;;;12.27;7.72;;;10.50;96.70;;;;;;5062059;28;20040;-69
2022/11/24 02:16:47;;;;;;;10.00;7.57;;;10.50;96.70;;;;;;5059580;28;20045;-69
2022/11/24 02:19:27;;;;;;;8.75;7.35;;;10.50;96.70;;;;;;5052987;28;20072;-69
2022/11/24 02:21:56;;;;;;;10.35;8.38;;;10.50;96.70;;;;;;5062019;28;20055;-69
2022/11/24 02:24:31;;;;;;;12.13;8.50;;;10.40;96.70;;;;;;5061689;28;20041;-70
2022/11/24 02:27:02;;;;;;;10.55;7.72;;;10.40;96.70;;;;;;5061601;28;20052;-70
2022/11/24 02:29:31;;;;;;;12.75;7.97;;;10.40;96.70;;;;;;5060295;28;20079;-70
2022/11/24 02:32:03;;;;;;;10.90;8.18;;;10.40;96.70;;;;;;5062018;28;20041;-70
2022/11/24 02:34:32;;;;;;;9.63;7.72;;;10.50;96.70;;;;;;5062105;28;20044;-70
2022/11/24 02:37:01;;;;;;;11.23;7.95;;;10.50;96.70;;;;;;5060755;28;20048;-70
2022/11/24 02:39:30;;;;;;;10.48;7.70;;;10.40;96.70;;;;;;5059419;28;20137;-70
2022/11/24 02:42:03;;;;;;;10.98;7.45;;;10.40;96.70;;;;;;5060340;28;20045;-70
2022/11/24 02:44:38;;;;;;;10.25;7.80;;;10.40;96.70;;;;;;5058026;28;20048;-70
2022/11/24 02:47:08;;;;;;;10.00;6.78;;;10.50;96.70;;;;;;5058261;28;20510;-69
2022/11/24 02:49:37;;;;;;;10.90;7.65;;;10.50;96.70;;;;;;5060100;28;20044;-70
2022/11/24 02:52:06;;;;;;;9.75;6.72;;;10.50;96.70;;;;;;5061380;28;20056;-69
2022/11/24 02:54:34;;;;;;;10.80;7.50;;;10.50;96.70;;;;;;5059579;28;20494;-69
2022/11/24 02:57:05;;;;;;;10.20;7.30;;;10.50;96.70;;;;;;5060621;28;20044;-69
2022/11/24 02:59:34;;;;;;;9.30;6.88;;;10.50;96.70;;;;;;5061360;28;20051;-70
2022/11/24 03:02:02;;;;;;;8.90;6.78;;;10.50;96.70;;;;;;5060195;28;20098;-70
2022/11/24 03:04:31;;;;;;;9.10;7.20;;;10.50;96.70;;;;;;5054967;28;20048;-69
2022/11/24 03:07:00;;;;;;;9.57;7.28;;;10.50;96.70;;;;;;5065444;28;20045;-69
2022/11/24 03:09:29;;;;;;;8.35;7.13;;;10.50;96.70;;;;;;5064332;28;20058;-70
2022/11/24 03:11:57;;;;;;;9.57;7.72;;;10.50;96.70;;;;;;5064897;28;20078;-69
2022/11/24 03:14:27;;;;;;;9.73;7.13;;;10.50;96.70;;;;;;5063249;28;20053;-70
2022/11/24 03:16:56;;;;;;;9.25;6.90;;;10.40;96.70;;;;;;5064007;28;20444;-69
2022/11/24 03:19:24;;;;;;;10.18;6.80;;;10.40;96.70;;;;;;5047021;28;20579;-70
2022/11/24 03:21:54;;;;;;;11.85;7.40;;;10.40;96.70;;;;;;5065234;28;20051;-69
2022/11/24 03:24:22;;;;;;;8.68;5.97;;;10.40;96.70;;;;;;5063364;28;20755;-69
2022/11/24 03:26:51;;;;;;;7.47;6.07;;;10.40;96.70;;;;;;5059127;28;20051;-69
2022/11/24 03:29:19;;;;;;;10.20;6.63;;;10.40;96.70;;;;;;5062872;28;20159;-70
2022/11/24 03:31:50;;;;;;;10.48;7.07;;;10.40;96.70;;;;;;5065013;28;20159;-70
2022/11/24 03:34:18;;;;;;;8.30;6.00;;;10.40;96.70;;;;;;5064031;28;20747;-70
2022/11/24 03:36:47;;;;;;;8.00;5.78;;;10.40;96.70;;;;;;5063164;28;20040;-70
2022/11/24 03:39:15;;;;;;;8.55;5.60;;;10.50;96.70;;;;;;5058526;28;20090;-70
2022/11/24 03:41:44;;;;;;;9.07;6.05;;;10.50;96.70;;;;;;5063032;28;20048;-69
2022/11/24 03:44:12;;;;;;;7.93;5.88;;;10.50;96.70;;;;;;5061319;28;20498;-70
2022/11/24 03:46:41;;;;;;;11.02;6.20;;;10.50;96.70;;;;;;5047386;28;20131;-70
2022/11/24 03:49:11;;;;;;;10.65;6.60;;;10.50;96.70;;;;;;5065047;28;20044;-70
2022/11/24 03:51:40;;;;;;;9.75;5.95;;;10.50;96.70;;;;;;5063078;28;20551;-70
2022/11/24 03:54:08;;;;;;;10.32;6.20;;;10.50;96.70;;;;;;5063189;28;20072;-70
2022/11/24 03:56:37;;;;;;;7.63;5.63;;;10.50;96.70;;;;;;5063885;28;20094;-70
2022/11/24 03:59:05;;;;;;;7.32;5.32;;;10.50;96.70;;;;;;5056953;28;20068;-70
2022/11/24 04:01:34;;;;;;;8.68;6.05;;;10.50;96.70;;;;;;5062739;28;20094;-70
2022/11/24 04:04:02;;;;;;;8.30;5.60;;;10.50;96.70;;;;;;5064776;28;20269;-70
2022/11/24 04:06:32;;;;;;;7.57;5.78;;;10.60;96.70;;;;;;5045732;28;20041;-70
2022/11/24 04:09:01;;;;;;;7.40;5.78;;;10.60;96.70;;;;;;5061695;28;20575;-70
2022/11/24 04:14:18;;;;;;;9.73;5.75;;;10.60;96.70;;;;;;5064178;28;20049;-70
2022/11/24 04:16:46;;;;;;;8.00;5.15;;;10.70;96.70;;;;;;5062898;28;20055;-71
2022/11/24 04:19:15;;;;;;;6.72;4.80;;;10.70;96.70;;;;;;5064256;28;20123;-69
2022/11/24 04:21:45;;;;;;;7.05;4.40;;;10.70;96.70;;;;;;5044782;28;21328;-70
2022/11/24 04:24:14;;;;;;;8.27;4.63;;;10.70;96.70;;;;;;5063007;28;20048;-70
2022/11/24 04:26:42;;;;;;;8.70;4.38;;;10.70;96.70;;;;;;5062546;28;20122;-70
2022/11/24 04:29:11;;;;;;;8.50;4.38;;;10.70;96.70;;;;;;5063012;28;20101;-70
2022/11/24 04:31:39;;;;;;;5.75;4.18;;;10.70;96.70;;;;;;5062616;28;20090;-70
2022/11/24 04:34:09;;;;;;;6.40;4.20;;;10.70;96.70;;;;;;5056808;28;20118;-70
2022/11/24 04:36:39;;;;;;;7.22;3.97;;;10.70;96.70;;;;;;5061390;28;20493;-70
2022/11/24 04:39:10;;;;;;;5.75;3.75;;;10.70;96.70;;;;;;5064041;28;20055;-70
2022/11/24 04:41:53;;;;;;;5.47;3.70;;;10.70;96.70;;;;;;5090683;28;20140;-70
2022/11/24 04:44:22;;;;;;;7.88;4.15;;;10.70;96.70;;;;;;5053265;28;20171;-70
2022/11/24 04:46:50;;;;;;;7.05;3.60;;;10.70;96.70;;;;;;5062304;28;20044;-69
2022/11/24 04:49:19;;;;;;;5.05;3.67;;;10.70;96.70;;;;;;5062600;28;20067;-70
2022/11/24 04:51:48;;;;;;;6.35;3.80;;;10.70;96.70;;;;;;5063866;28;20159;-69
2022/11/24 04:54:18;;;;;;;7.38;3.95;;;10.60;96.70;;;;;;5061860;28;20037;-70
2022/11/24 04:56:50;;;;;;;7.18;4.18;;;10.60;96.70;;;;;;5061392;28;20049;-69
2022/11/24 04:59:19;;;;;;;4.88;3.55;;;10.50;96.70;;;;;;5060774;28;20029;-70
2022/11/24 05:01:48;;;;;;;6.07;3.88;;;10.50;96.70;;;;;;5061606;28;20039;-70
2022/11/24 05:04:19;;;;;;;5.97;3.42;;;10.50;96.70;;;;;;5061977;28;20036;-70
2022/11/24 05:06:47;;;;;;;5.78;4.13;;;10.40;96.70;;;;;;5061869;28;20047;-70
2022/11/24 05:09:18;;;;;;;6.00;3.47;;;10.30;96.70;;;;;;5052061;28;20072;-70
2022/11/24 05:11:46;;;;;;;7.68;4.75;;;10.30;96.70;;;;;;5063462;28;20056;-70
2022/11/24 05:14:15;;;;;;;5.57;4.30;;;10.20;96.70;;;;;;5061314;28;20132;-70
2022/11/24 05:16:43;;;;;;;6.85;4.22;;;10.20;96.70;;;;;;5062951;28;20243;-70
2022/11/24 05:19:12;;;;;;;5.97;3.97;;;10.10;96.70;;;;;;5061370;28;20047;-70
2022/11/24 05:21:41;;;;;;;5.55;3.78;;;10.10;96.70;;;;;;5061581;28;20048;-69
2022/11/24 05:24:10;;;;;;;6.43;3.90;;;10.10;96.70;;;;;;5061545;28;20076;-70
2022/11/24 05:26:40;;;;;;;4.95;3.70;;;10.10;96.70;;;;;;5063159;28;20049;-70
2022/11/24 05:29:09;;;;;;;6.07;4.13;;;10.10;96.70;;;;;;5061889;28;20054;-70
2022/11/24 05:31:37;;;;;;;5.38;3.95;;;10.20;96.70;;;;;;5057544;28;20039;-70
2022/11/24 05:34:06;;;;;;;7.93;3.85;;;10.20;96.70;;;;;;5059751;28;20059;-70
2022/11/24 05:36:52;;;;;;;5.00;4.07;;;10.20;96.70;;;;;;5062559;28;20068;-70
2022/11/24 05:39:21;;;;;;;6.22;4.05;;;10.10;96.70;;;;;;5060651;28;20043;-70
2022/11/24 05:41:51;;;;;;;8.63;4.78;;;10.10;96.70;;;;;;5061842;28;20106;-70
2022/11/24 05:44:19;;;;;;;7.57;3.85;;;10.10;96.70;;;;;;5060431;28;20068;-70
2022/11/24 05:46:48;;;;;;;13.70;4.47;;;10.00;96.70;;;;;;5061556;28;20131;-70
2022/11/24 05:49:16;;;;;;;6.22;3.78;;;9.90;96.70;;;;;;5062853;28;20052;-70
2022/11/24 05:51:44;;;;;;;6.10;3.97;;;9.90;96.70;;;;;;5044021;28;20044;-71
2022/11/24 05:54:13;;;;;;;7.88;4.50;;;9.80;96.70;;;;;;5062685;28;20036;-70
2022/11/24 05:56:41;;;;;;;5.20;3.70;;;9.70;96.70;;;;;;5059510;28;20485;-68
2022/11/24 05:59:11;;;;;;;6.47;4.05;;;9.60;96.70;;;;;;5059494;28;20102;-69
2022/11/24 06:01:39;;;;;;;6.70;4.20;;;9.50;96.70;;;;;;5058410;28;20688;-69
2022/11/24 06:04:07;;;;;;;6.50;3.60;;;9.40;96.70;;;;;;5059256;28;20060;-69
2022/11/24 06:06:36;;;;;;;8.68;4.25;;;9.40;96.70;;;;;;5042158;28;20091;-69
2022/11/24 06:09:04;;;;;;;5.57;3.97;;;9.40;96.70;;;;;;5058589;28;20060;-69
2022/11/24 06:11:32;;;;;;;7.78;3.75;;;9.30;96.70;;;;;;5059643;28;20044;-69
2022/11/24 06:14:01;;;;;;;7.90;4.10;;;9.30;96.70;;;;;;5053845;28;20590;-69
2022/11/24 06:16:38;;;;;;;7.03;4.00;;;9.20;96.70;;;;;;5061427;28;20117;-69
2022/11/24 06:19:07;;;;;;;6.45;3.85;;;9.20;96.70;;;;;;5062402;28;20055;-69
2022/11/24 06:21:36;;;;;;;4.85;3.35;;;9.20;96.70;;;;;;5059799;28;20554;-69
2022/11/24 06:24:05;;;;;;;6.10;4.03;;;9.20;96.70;;;;;;5061129;28;20055;-69
2022/11/24 06:26:33;;;;;;;7.63;3.45;;;9.20;96.70;;;;;;5062446;28;20049;-69
2022/11/24 06:29:01;;;;;;;7.22;3.35;;;9.10;96.70;;;;;;5043850;28;20041;-69
2022/11/24 06:31:30;;;;;;;5.43;3.90;;;9.10;96.70;;;;;;5061425;28;20106;-69
2022/11/24 06:34:00;;;;;;;7.25;3.65;;;9.00;96.70;;;;;;5044002;28;20510;-70
2022/11/24 06:36:28;;;;;;;5.90;3.85;;;9.00;96.70;;;;;;5060084;28;20511;-69
2022/11/24 06:38:56;;;;;;;7.05;3.85;;;9.00;96.70;;;;;;5061281;28;20051;-69
2022/11/24 06:41:25;;;;;;;7.45;3.85;;;9.00;96.70;;;;;;5065077;28;20044;-70
2022/11/24 06:43:53;;;;;;;7.40;3.63;;;9.00;96.70;;;;;;5066094;28;20139;-69
2022/11/24 06:46:21;;;;;;;5.57;4.35;;;9.00;96.70;;;;;;5065466;28;20041;-71
2022/11/24 06:48:51;;;;;;;7.50;3.83;;;9.00;96.70;;;;;;5065758;28;20126;-70
2022/11/24 06:51:21;;;;;;;6.45;4.07;;;9.00;96.70;;;;;;5065699;28;20056;-71
2022/11/24 06:53:50;;;;;;;9.93;3.80;;;9.00;96.70;;;;;;5064392;28;20083;-71
2022/11/24 06:56:20;;;;;;;7.53;3.80;;;9.00;96.70;;;;;;5064295;28;20039;-70
2022/11/24 06:58:49;;;;;;;10.90;4.75;;;9.10;96.70;;;;;;5063348;28;20414;-70
2022/11/24 07:01:19;;;;;;;7.85;4.70;;;9.20;96.70;;;;;;5063114;28;20064;-70
2022/11/24 07:03:48;;;;;;;6.82;3.85;;;9.20;96.70;;;;;;5060093;28;20060;-71
2022/11/24 07:06:17;;;;;;;8.15;4.57;;;9.30;96.70;;;;;;5066102;28;20040;-70
2022/11/24 07:08:47;;;;;;;11.20;5.30;;;9.50;96.70;;;;;;5064720;28;20052;-70
2022/11/24 07:11:17;;;;;;;8.45;5.13;;;9.60;96.70;;;;;;5064211;28;20098;-69
2022/11/24 07:13:47;;;;;;;11.65;5.80;;;9.60;96.70;;;;;;5064170;28;20036;-70
2022/11/24 07:16:17;;;;;;;7.30;5.32;;;9.60;96.70;;;;;;5063086;28;20040;-70
2022/11/24 07:18:46;;;;;;;10.82;6.03;;;9.70;96.70;;;;;;5064628;28;20106;-70
2022/11/24 07:21:15;;;;;;;10.57;6.28;;;9.80;96.70;;;;;;5065744;28;20623;-70
2022/11/24 07:23:46;;;;;;;9.15;6.13;;;9.80;96.70;;;;;;5062549;28;20538;-70
2022/11/24 07:26:16;;;;;;;9.25;5.57;;;9.90;96.70;;;;;;5062923;28;20057;-71
2022/11/24 07:28:45;;;;;;;9.00;5.15;;;9.90;96.70;;;;;;5056725;28;20580;-70
2022/11/24 07:31:15;;;;;;;8.30;5.07;;;10.00;96.70;;;;;;5064940;28;20047;-71
2022/11/24 07:33:47;;;;;;;8.90;5.30;;;10.10;96.70;;;;;;5065415;28;20044;-70
2022/11/24 07:36:15;;;;;;;8.38;5.30;;;10.20;96.70;;;;;;5063884;28;20059;-71
2022/11/24 07:38:44;;;;;;;8.85;5.45;;;10.20;96.70;;;;;;5046028;28;20805;-71
2022/11/24 07:41:14;;;;;;;8.75;5.43;;;10.20;96.70;;;;;;5065554;28;20135;-71
2022/11/24 07:43:44;;;;;;;7.47;4.90;;;10.30;96.70;;;;;;5064634;28;20495;-70
2022/11/24 07:46:13;;;;;;;8.98;5.15;;;10.30;96.70;;;;;;5046930;28;20052;-70
2022/11/24 07:48:42;;;;;;;10.23;5.07;;;10.40;96.70;;;;;;5063494;28;20115;-71
2022/11/24 07:51:10;;;;;;;10.63;4.82;;;10.40;96.70;;;;;;5062944;28;20048;-71
2022/11/24 07:53:39;;;;;;;8.70;5.13;;;10.40;96.70;;;;;;5062687;28;20127;-70
2022/11/24 07:56:09;;;;;;;8.25;5.38;;;10.40;96.70;;;;;;5063509;28;20094;-71
2022/11/24 07:58:37;;;;;;;7.75;5.70;;;10.40;96.70;;;;;;5046165;28;20049;-71
2022/11/24 08:01:12;;;;;;;7.75;5.78;;;10.40;96.70;;;;;;5063679;28;20079;-70
2022/11/24 08:03:41;;;;;;;8.80;6.07;;;10.40;96.70;;;;;;5042705;28;20049;-71
2022/11/24 08:06:10;;;;;;;8.10;5.80;;;10.50;96.70;;;;;;5063502;28;20071;-71
2022/11/24 08:08:58;;;;;;;8.23;5.30;;;10.60;96.70;;;;;;5061735;28;20178;-70
2022/11/24 08:11:27;;;;;;;8.95;6.10;;;10.70;96.70;;;;;;5063016;28;20040;-70
2022/11/24 08:13:55;;;;;;;8.77;5.60;;;10.70;96.70;;;;;;5064238;28;20122;-70
2022/11/24 08:16:25;;;;;;;8.23;5.53;;;10.80;96.70;;;;;;5063787;28;20048;-71
2022/11/24 08:18:54;;;;;;;8.10;5.30;;;10.80;96.70;;;;;;5062602;28;20044;-71
2022/11/24 08:21:23;;;;;;;6.97;5.22;;;10.90;96.70;;;;;;5057088;28;20106;-71
2022/11/24 08:23:54;;;;;;;8.35;5.28;;;10.90;96.70;;;;;;5064066;28;20106;-71
2022/11/24 08:26:23;;;;;;;8.13;5.47;;;10.90;96.70;;;;;;5063350;28;20437;-70
2022/11/24 08:28:55;;;;;;;10.13;5.45;;;11.00;96.70;;;;;;5063790;28;20043;-71
2022/11/24 08:31:31;;;;;;;10.65;5.20;;;11.00;96.70;;;;;;5062022;28;20435;-70
2022/11/24 08:34:01;;;;;;;8.35;5.22;;;11.00;96.70;;;;;;5062360;28;20052;-70
2022/11/24 08:36:30;;;;;;;10.02;5.22;;;11.10;96.70;;;;;;5044729;28;20529;-70
2022/11/24 08:39:00;;;;;;;9.05;6.07;;;11.10;96.70;;;;;;5064248;28;20140;-70
2022/11/24 08:41:29;;;;;;;9.68;6.25;;;11.20;96.70;;;;;;5061773;28;20044;-70
2022/11/24 08:43:57;;;;;;;9.75;5.55;;;11.30;96.70;;;;;;5063577;28;20040;-71
2022/11/24 08:46:27;;;;;;;6.65;4.53;;;11.30;96.70;;;;;;5061519;28;20047;-70
2022/11/24 08:48:55;;;;;;;9.88;4.72;;;11.40;96.70;;;;;;5061924;28;20041;-71
2022/11/24 08:51:26;;;;;;;7.40;4.50;;;11.50;96.70;;;;;;5062977;28;20138;-71
2022/11/24 08:53:55;;;;;;;7.75;4.07;;;11.60;96.70;;;;;;5063364;28;20041;-71
2022/11/24 08:56:23;;;;;;;7.68;4.85;;;11.70;96.70;;;;;;5061415;28;20047;-71
2022/11/24 08:58:52;;;;;;;4.90;3.58;;;11.70;96.70;;;;;;5063511;28;20044;-70
2022/11/24 09:01:21;;;;;;;9.43;4.78;;;11.80;96.70;;;;;;5056513;28;20063;-70
2022/11/24 09:03:52;;;;;;;5.45;4.07;;;11.90;96.70;;;;;;5061723;28;20037;-70
2022/11/24 09:06:22;;;;;;;6.70;4.28;;;12.00;96.70;;;;;;5061759;28;20057;-71
2022/11/24 09:08:51;;;;;;;7.20;3.90;;;12.00;96.70;;;;;;5057696;28;20060;-70
2022/11/24 09:11:19;;;;;;;8.90;4.13;;;12.10;96.70;;;;;;5061393;28;20037;-70
2022/11/24 09:13:48;;;;;;;5.43;3.60;;;12.10;96.70;;;;;;5061723;28;20143;-70
2022/11/24 09:16:18;;;;;;;5.78;3.45;;;12.20;96.70;;;;;;5060283;28;20044;-70
2022/11/24 09:18:53;;;;;;;6.05;3.22;;;12.20;96.70;;;;;;5053860;28;20476;-70
2022/11/24 09:21:23;;;;;;;5.80;3.22;;;12.20;96.70;;;;;;5059585;28;20048;-70
2022/11/24 09:23:52;;;;;;;6.85;3.72;;;12.30;96.70;;;;;;5061729;28;20044;-70
2022/11/24 09:26:22;;;;;;;8.82;3.58;;;12.40;96.70;;;;;;5063060;28;20114;-70
2022/11/24 09:28:54;;;;;;;6.03;3.70;;;12.50;96.70;;;;;;5060408;28;20075;-70
2022/11/24 09:31:23;;;;;;;10.07;3.60;;;12.60;96.70;;;;;;5061573;28;20049;-70
2022/11/24 09:33:52;;;;;;;6.88;3.85;;;12.70;96.70;;;;;;5060962;28;20048;-70
2022/11/24 09:36:20;;;;;;;5.55;3.92;;;12.80;96.70;;;;;;5044392;28;20057;-71
2022/11/24 09:38:50;;;;;;;5.93;3.55;;;12.90;96.70;;;;;;5061474;28;20040;-70
2022/11/24 09:41:31;;;;;;;5.95;3.38;;;12.90;96.70;;;;;;5062818;28;20358;-70
2022/11/24 09:44:06;;;;;;;7.45;3.97;;;13.00;96.70;;;;;;5061683;28;20045;-70
2022/11/24 09:46:43;;;;;;;6.72;3.70;;;13.10;96.70;;;;;;5062502;28;20045;-71
2022/11/24 09:49:16;;;;;;;4.70;3.40;;;13.20;96.70;;;;;;5041320;28;20067;-71
2022/11/24 09:51:48;;;;;;;6.65;3.63;;;13.30;96.70;;;;;;5062844;28;20067;-71
2022/11/24 09:54:22;;;;;;;7.40;3.25;;;13.40;96.70;;;;;;5060003;28;20099;-71
2022/11/24 09:56:51;;;;;;;7.88;4.00;;;13.50;96.70;;;;;;5061501;28;20094;-71
2022/11/24 09:59:21;;;;;;;5.50;3.40;;;13.50;96.70;;;;;;5060201;28;20044;-71
2022/11/24 10:01:50;;;;;;;7.10;3.63;;;13.60;96.70;;;;;;5062753;28;20702;-70
2022/11/24 10:04:21;;;;;;;6.85;3.72;;;13.60;96.70;;;;;;5043607;28;20457;-70
2022/11/24 10:06:56;;;;;;;5.55;3.83;;;13.60;96.70;;;;;;5061151;28;20471;-72
2022/11/24 10:09:37;;;;;;;9.68;5.60;;;13.70;96.70;;;;;;5060357;28;20048;-71
2022/11/24 10:12:17;;;;;;;8.73;4.93;;;13.70;96.70;;;;;;5054313;28;20044;-71
2022/11/24 10:15:03;;;;;;;4.82;3.88;;;13.70;96.70;;;;;;5060134;28;20051;-71
2022/11/24 10:17:49;;;;;;;7.60;4.60;;;13.80;96.70;;;;;;5061058;28;20048;-71
2022/11/24 10:20:23;;;;;;;7.47;4.85;;;13.90;96.70;;;;;;5062960;28;20083;-71
2022/11/24 10:23:02;;;;;;;9.20;5.57;;;14.00;96.70;;;;;;5059841;28;20537;-71
2022/11/24 10:25:41;;;;;;;7.60;5.05;;;14.00;96.70;;;;;;5060265;28;20057;-71
2022/11/24 10:28:12;;;;;;;9.75;5.53;;;14.10;96.70;;;;;;5061186;28;20044;-71
2022/11/24 10:30:41;;;;;;;7.88;4.28;;;14.20;96.70;;;;;;5062605;28;20118;-71
2022/11/24 10:33:16;;;;;;;8.18;4.35;;;14.20;96.70;;;;;;5059821;28;20037;-71
2022/11/24 10:35:47;;;;;;;6.00;4.18;;;14.20;96.70;;;;;;5061415;28;20098;-71
2022/11/24 10:38:28;;;;;;;8.98;3.78;;;14.40;96.70;;;;;;5059522;28;20111;-71
2022/11/24 10:41:00;;;;;;;5.95;3.85;;;14.40;96.70;;;;;;5060624;28;20055;-71
2022/11/24 10:43:28;;;;;;;6.72;3.80;;;14.50;96.70;;;;;;5062231;28;20624;-71
2022/11/24 10:46:07;;;;;;;6.53;4.30;;;14.60;96.70;;;;;;5059509;28;20059;-71
2022/11/24 10:48:40;;;;;;;11.57;4.22;;;14.70;96.70;;;;;;5060728;28;20177;-71
2022/11/24 10:51:37;;;;;;;7.20;4.05;;;14.70;96.70;;;;;;5042841;28;20064;-71
2022/11/24 10:54:13;;;;;;;7.15;3.90;;;14.60;96.70;;;;;;5051854;28;20083;-71
2022/11/24 10:56:44;;;;;;;5.57;3.67;;;14.70;96.70;;;;;;5061977;28;20044;-71
2022/11/24 10:59:26;;;;;;;4.97;3.67;;;14.80;96.70;;;;;;5061588;28;20078;-71
2022/11/24 11:01:55;;;;;;;5.93;3.15;;;15.00;96.70;;;;;;5061250;28;20045;-71
2022/11/24 11:04:26;;;;;;;6.97;3.45;;;15.00;96.70;;;;;;5062016;28;20231;-71
2022/11/24 11:07:16;;;;;;;4.05;2.90;;;15.10;96.70;;;;;;5060368;28;20457;-71
2022/11/24 11:09:44;;;;;;;5.03;3.47;;;15.20;96.70;;;;;;5043069;28;20053;-71
2022/11/24 11:12:20;;;;;;;5.78;3.08;;;15.30;96.70;;;;;;5055957;28;20045;-71
2022/11/24 11:15:25;;;;;;;5.40;3.17;;;15.30;96.70;;;;;;5059645;28;20127;-71
2022/11/24 11:17:57;;;;;;;5.35;2.97;;;15.50;96.70;;;;;;5060247;28;20406;-71
2022/11/24 11:20:31;;;;;;;5.70;3.38;;;15.50;96.70;;;;;;5059976;28;20044;-71
2022/11/24 11:23:11;;;;;;;4.95;3.10;;;15.60;96.70;;;;;;5060442;28;20128;-71
2022/11/24 11:25:40;;;;;;;6.13;3.05;;;15.70;96.70;;;;;;5039920;28;20075;-71
2022/11/24 11:28:28;;;;;;;3.63;2.40;;;15.80;96.70;;;;;;5065129;28;20294;-71
2022/11/24 11:30:59;;;;;;;5.85;2.60;;;15.90;96.70;;;;;;5063272;28;20436;-71
2022/11/24 11:33:57;;;;;;;5.07;2.60;;;15.90;96.70;;;;;;5063439;28;20048;-71
2022/11/24 11:36:31;;;;;;;4.43;2.47;;;16.00;96.70;;;;;;5061822;28;20611;-71
2022/11/24 11:39:01;;;;;;;2.75;2.00;;;16.00;96.70;;;;;;5064379;28;20368;-71
2022/11/24 11:41:32;;;;;;;2.45;1.83;;;16.10;96.70;;;;;;5063215;28;20048;-71
2022/11/24 11:44:15;;;;;;;2.78;1.90;;;16.20;96.70;;;;;;5064330;28;20051;-71
2022/11/24 11:46:44;;;;;;;2.90;1.83;;;16.20;96.70;;;;;;5046713;28;20552;-71
2022/11/24 11:49:13;;;;;;;3.58;1.73;;;16.30;96.70;;;;;;5063172;28;20517;-71
2022/11/24 11:51:58;;;;;;;2.75;1.58;;;16.40;96.70;;;;;;5061167;28;20072;-71
2022/11/24 11:54:39;;;;;;;2.25;1.48;;;16.40;96.70;;;;;;5063460;28;20758;-71
2022/11/24 11:57:12;;;;;;;2.83;1.80;;;16.20;96.70;;;;;;5063124;28;20048;-71
2022/11/24 12:00:02;;;;;;;3.50;2.08;;;16.00;96.70;;;;;;5065197;28;20045;-71
2022/11/24 12:03:04;;;;;;;3.25;1.52;;;15.80;96.70;;;;;;5060309;28;20421;-71
2022/11/24 12:05:45;;;;;;;2.42;2.08;;;15.70;96.70;;;;;;5062685;28;20044;-71
2022/11/24 12:08:24;;;;;;;4.72;2.25;;;16.00;96.70;;;;;;5064374;28;20109;-70
2022/11/24 12:11:00;;;;;;;3.40;1.83;;;16.30;96.70;;;;;;5061884;28;20056;-71
2022/11/24 12:13:43;;;;;;;2.67;1.60;;;16.50;96.70;;;;;;5064122;28;20062;-71
2022/11/24 12:16:29;;;;;;;2.65;1.90;;;16.60;96.70;;;;;;5062945;28;20140;-71
2022/11/24 12:19:18;;;;;;;2.85;1.50;;;16.70;96.70;;;;;;5055995;28;20090;-72
2022/11/24 12:21:54;;;;;;;2.45;1.60;;;16.70;96.70;;;;;;5062977;28;20110;-72
2022/11/24 12:24:33;;;;;;;3.87;2.07;;;16.70;96.70;;;;;;5063756;28;20109;-71
2022/11/24 12:27:05;;;;;;;3.25;1.67;;;16.80;96.70;;;;;;5060202;28;20048;-72
2022/11/24 12:30:01;;;;;;;3.15;1.90;;;16.80;96.70;;;;;;5045425;28;20059;-71
2022/11/24 12:33:06;;;;;;;3.00;1.90;;;16.90;96.70;;;;;;5064097;28;20141;-71
2022/11/24 12:35:38;;;;;;;2.88;2.05;;;16.80;96.70;;;;;;5011946;28;20044;-72
2022/11/24 12:38:30;;;;;;;2.70;1.98;;;16.90;96.70;;;;;;5061759;28;20044;-71
2022/11/24 12:41:20;;;;;;;4.53;1.70;;;16.90;96.70;;;;;;5063951;28;20362;-72
2022/11/24 12:44:21;;;;;;;3.60;1.70;;;17.00;96.70;;;;;;5060040;28;20048;-72
2022/11/24 12:46:57;;;;;;;2.60;1.95;;;17.10;96.70;;;;;;5043493;28;20225;-72
2022/11/24 12:49:32;;;;;;;5.85;1.92;;;17.10;96.70;;;;;;5061876;28;20037;-72
2022/11/24 12:52:04;;;;;;;3.88;1.83;;;17.20;96.70;;;;;;5062094;28;20499;-72
2022/11/24 12:54:39;;;;;;;2.40;1.60;;;17.20;96.70;;;;;;5063642;28;20540;-72
2022/11/24 12:57:14;;;;;;;3.45;2.08;;;17.10;96.70;;;;;;5061279;28;20127;-72
2022/11/24 12:59:50;;;;;;;3.00;1.85;;;17.20;96.70;;;;;;5061579;28;20048;-72
2022/11/24 13:02:26;;;;;;;4.25;2.00;;;17.30;96.70;;;;;;5060107;28;20045;-71
2022/11/24 13:05:03;;;;;;;3.45;1.80;;;17.30;96.70;;;;;;5061656;28;20051;-71
2022/11/24 13:07:41;;;;;;;3.00;2.30;;;17.40;96.70;;;;;;5061763;28;20040;-72
2022/11/24 13:10:43;;;;;;;2.60;1.90;;;17.40;96.70;;;;;;5062942;28;20064;-71
2022/11/24 13:13:28;;;;;;;2.80;1.90;;;17.50;96.70;;;;;;4999924;28;20080;-71